Fyrbyggaren — SDJP — position and weather

sailwx.info

Track history (hours):
 
Tides and Currents Weather Stations Pressure Air Temp Water Temp Dewpoint Dewpoint Depression Visibility Wind Speed Wind Dir Waves Ship Positions

Fyrbyggaren

Last reported at 2014-Oct-25 16:25 UTC. Time now 2014-Oct-25 17:27 UTC.
Position N 59°19' E 018°06'.

Length 42 m; draft 4 m.

Type: Pollution control. MMSI: 265289000.

Date/timePositionNaut miles runAvg speedWind from/ knotsBaromVisibWave heightAir tempDewpointWater temp
2014-Oct-25 16:25N 59°19' E 018°06'0 0.0
2014-Oct-25 15:31N 59°19' E 018°06'0 0.0
2014-Oct-25 14:31N 59°19' E 018°06'0 0.0
2014-Oct-25 13:31N 59°19' E 018°06'0 0.0
2014-Oct-25 12:28N 59°19' E 018°06'0 0.0
2014-Oct-25 11:31N 59°19' E 018°06'0 0.0
2014-Oct-25 10:31N 59°19' E 018°06'0 0.0
2014-Oct-25 09:31N 59°19' E 018°06'0 0.0
2014-Oct-25 08:31N 59°19' E 018°06'0 0.0
2014-Oct-25 07:31N 59°19' E 018°06'0 0.0
2014-Oct-25 06:31N 59°19' E 018°06'0 0.0
2014-Oct-25 05:31N 59°19' E 018°06'0 0.0
2014-Oct-25 04:31N 59°19' E 018°06'0 0.0
2014-Oct-25 03:31N 59°19' E 018°06'0 0.0
2014-Oct-25 02:31N 59°19' E 018°06'0 0.0
2014-Oct-25 01:31N 59°19' E 018°06'0 0.0
2014-Oct-25 00:31N 59°19' E 018°06'0 0.0
2014-Oct-24 23:31N 59°19' E 018°06'0 0.0
2014-Oct-24 22:31N 59°19' E 018°06'0 0.0
2014-Oct-24 21:31N 59°19' E 018°06'0 0.0
2014-Oct-24 20:31N 59°19' E 018°06'0 0.0
2014-Oct-24 19:31N 59°19' E 018°06'0 0.0
2014-Oct-24 18:31N 59°19' E 018°06'0 0.0
2014-Oct-24 17:31N 59°19' E 018°06'0 0.0
2014-Oct-24 16:31N 59°19' E 018°06'0 0.0
2014-Oct-24 15:31N 59°19' E 018°06'0 0.0
2014-Oct-24 14:31N 59°19' E 018°06'0 0.0
2014-Oct-24 13:33N 59°19' E 018°06'7 0.1
2014-Oct-22 13:06N 59°22' E 018°19'610.9
2014-Oct-22 12:33N 59°19' E 018°09'2 1.5
2014-Oct-22 11:32N 59°19' E 018°06'0 0.0
2014-Oct-22 10:29N 59°19' E 018°06'0 0.0
2014-Oct-22 09:29N 59°19' E 018°06'0 0.0
2014-Oct-22 08:32N 59°19' E 018°06'0 0.0
2014-Oct-22 07:32N 59°19' E 018°06'0 0.0
2014-Oct-22 06:29N 59°19' E 018°06'0 0.0
2014-Oct-22 05:29N 59°19' E 018°06'0 0.0
2014-Oct-22 04:29N 59°19' E 018°06'0 0.0
2014-Oct-22 03:29N 59°19' E 018°06'0 0.0
2014-Oct-22 02:32N 59°19' E 018°06'0 0.0
2014-Oct-22 01:29N 59°19' E 018°06'0 0.0
2014-Oct-22 00:29N 59°19' E 018°06'0 0.0
2014-Oct-21 23:29N 59°19' E 018°06'0 0.0
2014-Oct-21 22:32N 59°19' E 018°06'0 0.0
2014-Oct-21 21:29N 59°19' E 018°06'0 0.0
2014-Oct-21 20:29N 59°19' E 018°06'0 0.0
2014-Oct-21 19:29N 59°19' E 018°06'0 0.0
2014-Oct-21 18:29N 59°19' E 018°06'0 0.0
2014-Oct-21 17:32N 59°19' E 018°06'0 0.0
2014-Oct-21 16:32N 59°19' E 018°06'6 6.3
2014-Oct-21 15:33N 59°22' E 018°17'2 0.2
2014-Oct-21 03:32N 59°21' E 018°14'4 3.9
2014-Oct-21 02:32N 59°19' E 018°06'0 0.0
2014-Oct-21 01:29N 59°19' E 018°06'0 0.0
2014-Oct-21 00:32N 59°19' E 018°06'0 0.0
2014-Oct-20 23:32N 59°19' E 018°06'0 0.0
2014-Oct-20 22:32N 59°19' E 018°06'0 0.0
2014-Oct-20 21:32N 59°19' E 018°06'0 0.0
2014-Oct-20 20:29N 59°19' E 018°06'0 0.0
2014-Oct-20 19:29N 59°19' E 018°06'0 0.0
2014-Oct-20 18:32N 59°19' E 018°06'0 0.0
2014-Oct-20 17:32N 59°19' E 018°06'0 0.0
2014-Oct-20 16:32N 59°19' E 018°06'0 0.0
2014-Oct-20 15:32N 59°19' E 018°06'0 0.0
2014-Oct-20 14:29N 59°19' E 018°06'0 0.0
2014-Oct-20 13:29N 59°19' E 018°06'0 0.0
2014-Oct-20 12:26N 59°19' E 018°06'0 0.0
2014-Oct-20 11:29N 59°19' E 018°06'0 0.0
2014-Oct-20 10:29N 59°19' E 018°06'0 0.0
2014-Oct-20 09:29N 59°19' E 018°06'0 0.0
2014-Oct-20 08:29N 59°19' E 018°06'0 0.0
2014-Oct-20 07:29N 59°19' E 018°06'0 0.0
2014-Oct-20 06:29N 59°19' E 018°06'0 0.0
2014-Oct-20 05:29N 59°19' E 018°06'0 0.0
2014-Oct-20 04:29N 59°19' E 018°06'0 0.0
2014-Oct-20 03:29N 59°19' E 018°06'0 0.0
2014-Oct-20 02:26N 59°19' E 018°06'0 0.0
2014-Oct-20 01:29N 59°19' E 018°06'0 0.0
2014-Oct-20 00:29N 59°19' E 018°06'0 0.0
2014-Oct-19 23:32N 59°19' E 018°06'0 0.0
2014-Oct-19 22:29N 59°19' E 018°06'0 0.0
2014-Oct-19 21:29N 59°19' E 018°06'0 0.0
2014-Oct-19 20:29N 59°19' E 018°06'0 0.0
2014-Oct-19 19:29N 59°19' E 018°06'0 0.0
2014-Oct-19 18:29N 59°19' E 018°06'0 0.0
2014-Oct-19 17:29N 59°19' E 018°06'0 0.0
2014-Oct-19 16:23N 59°19' E 018°06'0 0.0
2014-Oct-19 15:29N 59°19' E 018°06'0 0.0
2014-Oct-19 14:29N 59°19' E 018°06'0 0.0
2014-Oct-19 13:29N 59°19' E 018°06'0 0.0
2014-Oct-19 12:29N 59°19' E 018°06'0 0.0
2014-Oct-19 11:29N 59°19' E 018°06'0 0.0
2014-Oct-19 10:29N 59°19' E 018°06'0 0.0
2014-Oct-19 09:29N 59°19' E 018°06'0 0.0
2014-Oct-19 08:29N 59°19' E 018°06'0 0.0
2014-Oct-19 07:29N 59°19' E 018°06'0 0.0
2014-Oct-19 06:32N 59°19' E 018°06'0 0.0
2014-Oct-19 05:23N 59°19' E 018°06'0 0.0
2014-Oct-19 04:23N 59°19' E 018°06'0 0.0
2014-Oct-19 03:29N 59°19' E 018°06'0 0.0
2014-Oct-19 02:26N 59°19' E 018°06'0 0.0
2014-Oct-19 01:26N 59°19' E 018°06'0 0.0
2014-Oct-19 00:29N 59°19' E 018°06'0 0.0
2014-Oct-18 23:32N 59°19' E 018°06'0 0.0
2014-Oct-18 22:26N 59°19' E 018°06'0 0.0
2014-Oct-18 21:32N 59°19' E 018°06'0 0.0
2014-Oct-18 20:32N 59°19' E 018°06'0 0.0
2014-Oct-18 19:29N 59°19' E 018°06'0 0.0
2014-Oct-18 18:29N 59°19' E 018°06'0 0.0
2014-Oct-18 17:32N 59°19' E 018°06'0 0.0
2014-Oct-18 16:29N 59°19' E 018°06'0 0.0
2014-Oct-18 15:32N 59°19' E 018°06'0 0.0
2014-Oct-18 14:29N 59°19' E 018°06'0 0.0
2014-Oct-18 13:29N 59°19' E 018°06'0 0.0
2014-Oct-18 12:29N 59°19' E 018°06'0 0.0
2014-Oct-18 11:32N 59°19' E 018°06'0 0.0
2014-Oct-18 10:29N 59°19' E 018°06'0 0.0
2014-Oct-18 09:29N 59°19' E 018°06'0 0.0
2014-Oct-18 08:23N 59°19' E 018°06'0 0.0
2014-Oct-18 07:29N 59°19' E 018°06'0 0.0
2014-Oct-18 06:32N 59°19' E 018°06'0 0.0
2014-Oct-18 05:23N 59°19' E 018°06'0 0.0
2014-Oct-18 04:29N 59°19' E 018°06'0 0.0
2014-Oct-18 03:29N 59°19' E 018°06'0 0.0
2014-Oct-18 02:29N 59°19' E 018°06'0 0.0
2014-Oct-18 01:29N 59°19' E 018°06'0 0.0
2014-Oct-18 00:29N 59°19' E 018°06'0 0.0
2014-Oct-17 23:32N 59°19' E 018°06'0 0.0
2014-Oct-17 22:32N 59°19' E 018°06'0 0.0
2014-Oct-17 21:23N 59°19' E 018°06'0 0.0
2014-Oct-17 20:29N 59°19' E 018°06'0 0.0
2014-Oct-17 19:29N 59°19' E 018°06'0 0.0
2014-Oct-17 18:32N 59°19' E 018°06'0 0.0
2014-Oct-17 17:26N 59°19' E 018°06'0 0.0
2014-Oct-17 16:26N 59°19' E 018°06'0 0.0
2014-Oct-17 15:26N 59°19' E 018°06'0 0.0
2014-Oct-17 14:11N 59°19' E 018°06'0 0.0
2014-Oct-17 13:23N 59°19' E 018°06'0 0.0
2014-Oct-17 12:32N 59°19' E 018°06'0 0.0
2014-Oct-17 11:23N 59°19' E 018°06'0 0.0
2014-Oct-17 10:29N 59°19' E 018°06'0 0.0
2014-Oct-17 09:29N 59°19' E 018°06'0 0.0
2014-Oct-17 08:32N 59°19' E 018°06'0 0.0
2014-Oct-17 07:32N 59°19' E 018°06'0 0.0
2014-Oct-17 03:26N 59°19' E 018°06'0 0.0
2014-Oct-17 02:23N 59°19' E 018°06'0 0.0
2014-Oct-17 01:23N 59°19' E 018°06'0 0.0
2014-Oct-17 00:32N 59°19' E 018°06'0 0.0
2014-Oct-16 23:29N 59°19' E 018°06'0 0.0
2014-Oct-16 22:20N 59°19' E 018°06'0 0.0
2014-Oct-16 21:32N 59°19' E 018°06'0 0.0
2014-Oct-16 20:20N 59°19' E 018°06'0 0.0
2014-Oct-16 19:32N 59°19' E 018°06'0 0.0
2014-Oct-16 18:32N 59°19' E 018°06'0 0.0
2014-Oct-16 17:20N 59°19' E 018°06'0 0.0
2014-Oct-16 16:29N 59°19' E 018°06'0 0.0
2014-Oct-16 15:29N 59°19' E 018°06'0 0.0
2014-Oct-16 14:26N 59°19' E 018°06'0 0.0
2014-Oct-16 13:26N 59°19' E 018°06'0 0.0
2014-Oct-16 00:29N 59°19' E 018°06'0 0.0
2014-Oct-15 23:29N 59°19' E 018°06'0 0.0
2014-Oct-15 22:29N 59°19' E 018°06'0 0.0
2014-Oct-15 21:29N 59°19' E 018°06'  
Track history (hours):
 
Tides and Currents Weather Stations Pressure Air Temp Water Temp Dewpoint Dewpoint Depression Visibility Wind Speed Wind Dir Waves Ship Positions

Fyrbyggaren

Last reported at 2014-Oct-25 16:25 UTC. Time now 2014-Oct-25 17:27 UTC.
Position N 59°19' E 018°06'.

Length 42 m; draft 4 m.

Type: Pollution control. MMSI: 265289000.

Date/timePositionNaut miles runAvg speedWind from/ knotsBaromVisibWave heightAir tempDewpointWater temp
2014-Oct-25 16:25N 59°19' E 018°06'0 0.0
2014-Oct-25 15:31N 59°19' E 018°06'0 0.0
2014-Oct-25 14:31N 59°19' E 018°06'0 0.0
2014-Oct-25 13:31N 59°19' E 018°06'0 0.0
2014-Oct-25 12:28N 59°19' E 018°06'0 0.0
2014-Oct-25 11:31N 59°19' E 018°06'0 0.0
2014-Oct-25 10:31N 59°19' E 018°06'0 0.0
2014-Oct-25 09:31N 59°19' E 018°06'0 0.0
2014-Oct-25 08:31N 59°19' E 018°06'0 0.0
2014-Oct-25 07:31N 59°19' E 018°06'0 0.0
2014-Oct-25 06:31N 59°19' E 018°06'0 0.0
2014-Oct-25 05:31N 59°19' E 018°06'0 0.0
2014-Oct-25 04:31N 59°19' E 018°06'0 0.0
2014-Oct-25 03:31N 59°19' E 018°06'0 0.0
2014-Oct-25 02:31N 59°19' E 018°06'0 0.0
2014-Oct-25 01:31N 59°19' E 018°06'0 0.0
2014-Oct-25 00:31N 59°19' E 018°06'0 0.0
2014-Oct-24 23:31N 59°19' E 018°06'0 0.0
2014-Oct-24 22:31N 59°19' E 018°06'0 0.0
2014-Oct-24 21:31N 59°19' E 018°06'0 0.0
2014-Oct-24 20:31N 59°19' E 018°06'0 0.0
2014-Oct-24 19:31N 59°19' E 018°06'0 0.0
2014-Oct-24 18:31N 59°19' E 018°06'0 0.0
2014-Oct-24 17:31N 59°19' E 018°06'0 0.0
2014-Oct-24 16:31N 59°19' E 018°06'0 0.0
2014-Oct-24 15:31N 59°19' E 018°06'0 0.0
2014-Oct-24 14:31N 59°19' E 018°06'0 0.0
2014-Oct-24 13:33N 59°19' E 018°06'7 0.1
2014-Oct-22 13:06N 59°22' E 018°19'610.9
2014-Oct-22 12:33N 59°19' E 018°09'2 1.5
2014-Oct-22 11:32N 59°19' E 018°06'0 0.0
2014-Oct-22 10:29N 59°19' E 018°06'0 0.0
2014-Oct-22 09:29N 59°19' E 018°06'0 0.0
2014-Oct-22 08:32N 59°19' E 018°06'0 0.0
2014-Oct-22 07:32N 59°19' E 018°06'0 0.0
2014-Oct-22 06:29N 59°19' E 018°06'0 0.0
2014-Oct-22 05:29N 59°19' E 018°06'0 0.0
2014-Oct-22 04:29N 59°19' E 018°06'0 0.0
2014-Oct-22 03:29N 59°19' E 018°06'0 0.0
2014-Oct-22 02:32N 59°19' E 018°06'0 0.0
2014-Oct-22 01:29N 59°19' E 018°06'0 0.0
2014-Oct-22 00:29N 59°19' E 018°06'0 0.0
2014-Oct-21 23:29N 59°19' E 018°06'0 0.0
2014-Oct-21 22:32N 59°19' E 018°06'0 0.0
2014-Oct-21 21:29N 59°19' E 018°06'0 0.0
2014-Oct-21 20:29N 59°19' E 018°06'0 0.0
2014-Oct-21 19:29N 59°19' E 018°06'0 0.0
2014-Oct-21 18:29N 59°19' E 018°06'0 0.0
2014-Oct-21 17:32N 59°19' E 018°06'0 0.0
2014-Oct-21 16:32N 59°19' E 018°06'6 6.3
2014-Oct-21 15:33N 59°22' E 018°17'2 0.2
2014-Oct-21 03:32N 59°21' E 018°14'4 3.9
2014-Oct-21 02:32N 59°19' E 018°06'0 0.0
2014-Oct-21 01:29N 59°19' E 018°06'0 0.0
2014-Oct-21 00:32N 59°19' E 018°06'0 0.0
2014-Oct-20 23:32N 59°19' E 018°06'0 0.0
2014-Oct-20 22:32N 59°19' E 018°06'0 0.0
2014-Oct-20 21:32N 59°19' E 018°06'0 0.0
2014-Oct-20 20:29N 59°19' E 018°06'0 0.0
2014-Oct-20 19:29N 59°19' E 018°06'0 0.0
2014-Oct-20 18:32N 59°19' E 018°06'0 0.0
2014-Oct-20 17:32N 59°19' E 018°06'0 0.0
2014-Oct-20 16:32N 59°19' E 018°06'0 0.0
2014-Oct-20 15:32N 59°19' E 018°06'0 0.0
2014-Oct-20 14:29N 59°19' E 018°06'0 0.0
2014-Oct-20 13:29N 59°19' E 018°06'0 0.0
2014-Oct-20 12:26N 59°19' E 018°06'0 0.0
2014-Oct-20 11:29N 59°19' E 018°06'0 0.0
2014-Oct-20 10:29N 59°19' E 018°06'0 0.0
2014-Oct-20 09:29N 59°19' E 018°06'0 0.0
2014-Oct-20 08:29N 59°19' E 018°06'0 0.0
2014-Oct-20 07:29N 59°19' E 018°06'0 0.0
2014-Oct-20 06:29N 59°19' E 018°06'0 0.0
2014-Oct-20 05:29N 59°19' E 018°06'0 0.0
2014-Oct-20 04:29N 59°19' E 018°06'0 0.0
2014-Oct-20 03:29N 59°19' E 018°06'0 0.0
2014-Oct-20 02:26N 59°19' E 018°06'0 0.0
2014-Oct-20 01:29N 59°19' E 018°06'0 0.0
2014-Oct-20 00:29N 59°19' E 018°06'0 0.0
2014-Oct-19 23:32N 59°19' E 018°06'0 0.0
2014-Oct-19 22:29N 59°19' E 018°06'0 0.0
2014-Oct-19 21:29N 59°19' E 018°06'0 0.0
2014-Oct-19 20:29N 59°19' E 018°06'0 0.0
2014-Oct-19 19:29N 59°19' E 018°06'0 0.0
2014-Oct-19 18:29N 59°19' E 018°06'0 0.0
2014-Oct-19 17:29N 59°19' E 018°06'0 0.0
2014-Oct-19 16:23N 59°19' E 018°06'0 0.0
2014-Oct-19 15:29N 59°19' E 018°06'0 0.0
2014-Oct-19 14:29N 59°19' E 018°06'0 0.0
2014-Oct-19 13:29N 59°19' E 018°06'0 0.0
2014-Oct-19 12:29N 59°19' E 018°06'0 0.0
2014-Oct-19 11:29N 59°19' E 018°06'0 0.0
2014-Oct-19 10:29N 59°19' E 018°06'0 0.0
2014-Oct-19 09:29N 59°19' E 018°06'0 0.0
2014-Oct-19 08:29N 59°19' E 018°06'0 0.0
2014-Oct-19 07:29N 59°19' E 018°06'0 0.0
2014-Oct-19 06:32N 59°19' E 018°06'0 0.0
2014-Oct-19 05:23N 59°19' E 018°06'0 0.0
2014-Oct-19 04:23N 59°19' E 018°06'0 0.0
2014-Oct-19 03:29N 59°19' E 018°06'0 0.0
2014-Oct-19 02:26N 59°19' E 018°06'0 0.0
2014-Oct-19 01:26N 59°19' E 018°06'0 0.0
2014-Oct-19 00:29N 59°19' E 018°06'0 0.0
2014-Oct-18 23:32N 59°19' E 018°06'0 0.0
2014-Oct-18 22:26N 59°19' E 018°06'0 0.0
2014-Oct-18 21:32N 59°19' E 018°06'0 0.0
2014-Oct-18 20:32N 59°19' E 018°06'0 0.0
2014-Oct-18 19:29N 59°19' E 018°06'0 0.0
2014-Oct-18 18:29N 59°19' E 018°06'0 0.0
2014-Oct-18 17:32N 59°19' E 018°06'0 0.0
2014-Oct-18 16:29N 59°19' E 018°06'0 0.0
2014-Oct-18 15:32N 59°19' E 018°06'0 0.0
2014-Oct-18 14:29N 59°19' E 018°06'0 0.0
2014-Oct-18 13:29N 59°19' E 018°06'0 0.0
2014-Oct-18 12:29N 59°19' E 018°06'0 0.0
2014-Oct-18 11:32N 59°19' E 018°06'0 0.0
2014-Oct-18 10:29N 59°19' E 018°06'0 0.0
2014-Oct-18 09:29N 59°19' E 018°06'0 0.0
2014-Oct-18 08:23N 59°19' E 018°06'0 0.0
2014-Oct-18 07:29N 59°19' E 018°06'0 0.0
2014-Oct-18 06:32N 59°19' E 018°06'0 0.0
2014-Oct-18 05:23N 59°19' E 018°06'0 0.0
2014-Oct-18 04:29N 59°19' E 018°06'0 0.0
2014-Oct-18 03:29N 59°19' E 018°06'0 0.0
2014-Oct-18 02:29N 59°19' E 018°06'0 0.0
2014-Oct-18 01:29N 59°19' E 018°06'0 0.0
2014-Oct-18 00:29N 59°19' E 018°06'0 0.0
2014-Oct-17 23:32N 59°19' E 018°06'0 0.0
2014-Oct-17 22:32N 59°19' E 018°06'0 0.0
2014-Oct-17 21:23N 59°19' E 018°06'0 0.0
2014-Oct-17 20:29N 59°19' E 018°06'0 0.0
2014-Oct-17 19:29N 59°19' E 018°06'0 0.0
2014-Oct-17 18:32N 59°19' E 018°06'0 0.0
2014-Oct-17 17:26N 59°19' E 018°06'0 0.0
2014-Oct-17 16:26N 59°19' E 018°06'0 0.0
2014-Oct-17 15:26N 59°19' E 018°06'0 0.0
2014-Oct-17 14:11N 59°19' E 018°06'0 0.0
2014-Oct-17 13:23N 59°19' E 018°06'0 0.0
2014-Oct-17 12:32N 59°19' E 018°06'0 0.0
2014-Oct-17 11:23N 59°19' E 018°06'0 0.0
2014-Oct-17 10:29N 59°19' E 018°06'0 0.0
2014-Oct-17 09:29N 59°19' E 018°06'0 0.0
2014-Oct-17 08:32N 59°19' E 018°06'0 0.0
2014-Oct-17 07:32N 59°19' E 018°06'0 0.0
2014-Oct-17 03:26N 59°19' E 018°06'0 0.0
2014-Oct-17 02:23N 59°19' E 018°06'0 0.0
2014-Oct-17 01:23N 59°19' E 018°06'0 0.0
2014-Oct-17 00:32N 59°19' E 018°06'0 0.0
2014-Oct-16 23:29N 59°19' E 018°06'0 0.0
2014-Oct-16 22:20N 59°19' E 018°06'0 0.0
2014-Oct-16 21:32N 59°19' E 018°06'0 0.0
2014-Oct-16 20:20N 59°19' E 018°06'0 0.0
2014-Oct-16 19:32N 59°19' E 018°06'0 0.0
2014-Oct-16 18:32N 59°19' E 018°06'0 0.0
2014-Oct-16 17:20N 59°19' E 018°06'0 0.0
2014-Oct-16 16:29N 59°19' E 018°06'0 0.0
2014-Oct-16 15:29N 59°19' E 018°06'0 0.0
2014-Oct-16 14:26N 59°19' E 018°06'0 0.0
2014-Oct-16 13:26N 59°19' E 018°06'0 0.0
2014-Oct-16 00:29N 59°19' E 018°06'0 0.0
2014-Oct-15 23:29N 59°19' E 018°06'0 0.0
2014-Oct-15 22:29N 59°19' E 018°06'0 0.0
2014-Oct-15 21:29N 59°19' E 018°06'  

Dump ship's entire track history